IBB482 GCRR-GCGM
Flight info
| Callsign | IBB482 |
|---|---|
| Flight time | N/A |
| Altitude | 15000 |
| Route | LORP3M LORPO LPC MOVAS |
| Aircraft | AT75/M-SDE2E3FGHIRWXY/LB1 |
Departure
| Time | 2026-05-04 12:31 |
|---|---|
| Airport | César Manrique-Lanzarote Airport (GCRR) |
Arrival
| Time | N/A |
|---|---|
| Airport | La Gomera Airport (GCGM) |
| Time | Latitude | Longitude | Altitude | Speed | Heading |
|---|---|---|---|---|---|
| 2026-05-04 12:18 | 28.95196 | -13.60590 | 53 ft | 0 kts | 298° |
| 2026-05-04 12:24 | 28.95197 | -13.60593 | 53 ft | 2 kts | 286° |
| 2026-05-04 12:25 | 28.95175 | -13.60601 | 53 ft | 2 kts | 133° |
| 2026-05-04 12:25 | 28.95174 | -13.60599 | 53 ft | 0 kts | 128° |
| 2026-05-04 12:25 | 28.95169 | -13.60592 | 53 ft | 6 kts | 127° |
| 2026-05-04 12:26 | 28.95122 | -13.60509 | 53 ft | 16 kts | 122° |
| 2026-05-04 12:26 | 28.95085 | -13.60451 | 53 ft | 6 kts | 161° |
| 2026-05-04 12:26 | 28.95033 | -13.60466 | 53 ft | 10 kts | 208° |
| 2026-05-04 12:26 | 28.94959 | -13.60509 | 53 ft | 13 kts | 205° |
| 2026-05-04 12:27 | 28.94868 | -13.60560 | 53 ft | 16 kts | 208° |
| 2026-05-04 12:27 | 28.94768 | -13.60617 | 53 ft | 16 kts | 209° |
| 2026-05-04 12:27 | 28.94663 | -13.60679 | 53 ft | 17 kts | 206° |
| 2026-05-04 12:27 | 28.94553 | -13.60741 | 53 ft | 18 kts | 207° |
| 2026-05-04 12:28 | 28.94437 | -13.60807 | 53 ft | 19 kts | 207° |
| 2026-05-04 12:28 | 28.94320 | -13.60877 | 53 ft | 19 kts | 208° |
| 2026-05-04 12:28 | 28.94200 | -13.60946 | 53 ft | 19 kts | 207° |
| 2026-05-04 12:28 | 28.94081 | -13.61015 | 53 ft | 20 kts | 207° |
| 2026-05-04 12:29 | 28.93958 | -13.61086 | 53 ft | 20 kts | 206° |
| 2026-05-04 12:29 | 28.93834 | -13.61156 | 53 ft | 20 kts | 206° |
| 2026-05-04 12:29 | 28.93715 | -13.61226 | 53 ft | 17 kts | 216° |
| 2026-05-04 12:29 | 28.93660 | -13.61213 | 53 ft | 8 kts | 116° |
| 2026-05-04 12:30 | 28.93636 | -13.61151 | 53 ft | 9 kts | 113° |
| 2026-05-04 12:30 | 28.93614 | -13.61077 | 53 ft | 10 kts | 78° |
| 2026-05-04 12:30 | 28.93743 | -13.60987 | 54 ft | 58 kts | 27° |
| 2026-05-04 12:30 | 28.94321 | -13.60655 | 66 ft | 122 kts | 28° |
| 2026-05-04 12:31 | 28.95116 | -13.60153 | 479 ft | 139 kts | 31° |
| 2026-05-04 12:31 | 28.96010 | -13.59459 | 795 ft | 166 kts | 36° |
| 2026-05-04 12:31 | 28.96984 | -13.58672 | 1378 ft | 171 kts | 37° |
| 2026-05-04 12:31 | 28.97940 | -13.57900 | 1905 ft | 168 kts | 37° |
| 2026-05-04 12:32 | 28.98832 | -13.57179 | 2215 ft | 174 kts | 37° |
| 2026-05-04 12:32 | 29.00435 | -13.55758 | 2883 ft | 176 kts | 45° |
| 2026-05-04 12:32 | 29.01272 | -13.54735 | 3283 ft | 178 kts | 47° |
| 2026-05-04 12:33 | 29.02696 | -13.54089 | 3804 ft | 175 kts | 1° |
| 2026-05-04 12:33 | 29.03402 | -13.54301 | 4029 ft | 175 kts | 338° |
| 2026-05-04 12:33 | 29.04223 | -13.55272 | 4423 ft | 176 kts | 301° |
| 2026-05-04 12:33 | 29.04331 | -13.56644 | 4850 ft | 177 kts | 264° |
| 2026-05-04 12:34 | 29.03917 | -13.57964 | 5319 ft | 177 kts | 252° |
| 2026-05-04 12:34 | 29.03410 | -13.59252 | 5798 ft | 175 kts | 250° |
| 2026-05-04 12:34 | 29.02905 | -13.60493 | 6312 ft | 170 kts | 249° |
| 2026-05-04 12:34 | 29.02414 | -13.61693 | 6805 ft | 166 kts | 249° |
| 2026-05-04 12:35 | 29.01918 | -13.62894 | 7215 ft | 168 kts | 249° |
| 2026-05-04 12:35 | 29.01410 | -13.64120 | 7620 ft | 170 kts | 249° |
| 2026-05-04 12:35 | 29.00906 | -13.65338 | 8031 ft | 171 kts | 249° |
| 2026-05-04 12:35 | 29.00397 | -13.66567 | 8433 ft | 173 kts | 249° |
| 2026-05-04 12:36 | 28.99882 | -13.67810 | 8863 ft | 174 kts | 249° |
| 2026-05-04 12:36 | 28.99361 | -13.69067 | 9300 ft | 174 kts | 249° |
| 2026-05-04 12:36 | 28.98845 | -13.70310 | 9718 ft | 175 kts | 249° |
| 2026-05-04 12:36 | 28.98315 | -13.71586 | 10138 ft | 176 kts | 249° |
| 2026-05-04 12:37 | 28.97790 | -13.72850 | 10535 ft | 178 kts | 249° |
| 2026-05-04 12:37 | 28.97262 | -13.74119 | 10934 ft | 179 kts | 249° |
| 2026-05-04 12:37 | 28.96723 | -13.75417 | 11323 ft | 180 kts | 249° |
| 2026-05-04 12:37 | 28.96188 | -13.76703 | 11709 ft | 181 kts | 249° |
| 2026-05-04 12:38 | 28.95644 | -13.78009 | 12086 ft | 182 kts | 249° |
| 2026-05-04 12:38 | 28.95100 | -13.79314 | 12461 ft | 183 kts | 249° |
| 2026-05-04 12:38 | 28.94549 | -13.80639 | 12830 ft | 184 kts | 249° |
| 2026-05-04 12:38 | 28.93999 | -13.81959 | 13191 ft | 185 kts | 249° |
| 2026-05-04 12:39 | 28.93446 | -13.83286 | 13541 ft | 186 kts | 249° |
| 2026-05-04 12:39 | 28.92884 | -13.84633 | 13894 ft | 187 kts | 248° |
| 2026-05-04 12:39 | 28.92323 | -13.85978 | 14241 ft | 188 kts | 248° |
| 2026-05-04 12:39 | 28.91759 | -13.87328 | 14578 ft | 189 kts | 248° |
| 2026-05-04 12:40 | 28.91185 | -13.88706 | 14841 ft | 195 kts | 249° |
| 2026-05-04 12:40 | 28.90592 | -13.90139 | 14958 ft | 205 kts | 249° |
| 2026-05-04 12:40 | 28.89969 | -13.91658 | 14999 ft | 218 kts | 249° |
| 2026-05-04 12:40 | 28.89317 | -13.93261 | 15005 ft | 228 kts | 249° |
| 2026-05-04 12:41 | 28.88641 | -13.94932 | 15006 ft | 236 kts | 249° |
| 2026-05-04 12:41 | 28.87948 | -13.96653 | 15005 ft | 242 kts | 249° |
| 2026-05-04 12:41 | 28.87242 | -13.98413 | 15004 ft | 246 kts | 249° |
| 2026-05-04 12:41 | 28.86525 | -14.00205 | 15003 ft | 249 kts | 249° |
| 2026-05-04 12:42 | 28.85804 | -14.02008 | 15002 ft | 251 kts | 249° |
| 2026-05-04 12:42 | 28.85083 | -14.03812 | 15002 ft | 252 kts | 249° |
| 2026-05-04 12:42 | 28.84359 | -14.05625 | 15002 ft | 253 kts | 249° |
| 2026-05-04 12:42 | 28.83622 | -14.07471 | 15002 ft | 254 kts | 249° |
| 2026-05-04 12:43 | 28.82893 | -14.09297 | 15001 ft | 255 kts | 249° |
| 2026-05-04 12:43 | 28.82155 | -14.11147 | 15001 ft | 255 kts | 249° |
| 2026-05-04 12:43 | 28.81419 | -14.12990 | 15001 ft | 255 kts | 249° |
| 2026-05-04 12:43 | 28.80679 | -14.14842 | 15001 ft | 255 kts | 249° |
| 2026-05-04 12:44 | 28.79944 | -14.16683 | 15001 ft | 256 kts | 249° |
| 2026-05-04 12:44 | 28.79202 | -14.18539 | 15001 ft | 256 kts | 249° |
| 2026-05-04 12:44 | 28.78474 | -14.20362 | 15001 ft | 256 kts | 249° |
| 2026-05-04 12:44 | 28.77732 | -14.22216 | 15001 ft | 256 kts | 249° |
| 2026-05-04 12:45 | 28.76998 | -14.24050 | 15001 ft | 256 kts | 249° |
| 2026-05-04 12:45 | 28.76255 | -14.25909 | 15001 ft | 256 kts | 249° |
| 2026-05-04 12:45 | 28.75514 | -14.27759 | 15001 ft | 256 kts | 249° |
| 2026-05-04 12:45 | 28.74773 | -14.29608 | 15001 ft | 256 kts | 249° |
| 2026-05-04 12:46 | 28.74275 | -14.30852 | 15001 ft | 256 kts | 249° |
| 2026-05-04 12:46 | 28.73932 | -14.31709 | 15001 ft | 256 kts | 249° |
| 2026-05-04 12:46 | 28.73190 | -14.33560 | 15001 ft | 256 kts | 249° |
| 2026-05-04 12:46 | 28.72449 | -14.35408 | 15001 ft | 256 kts | 249° |
| 2026-05-04 12:47 | 28.71715 | -14.37238 | 15001 ft | 256 kts | 249° |
| 2026-05-04 12:47 | 28.70974 | -14.39085 | 15001 ft | 256 kts | 249° |
| 2026-05-04 12:47 | 28.70232 | -14.40934 | 15001 ft | 256 kts | 249° |
| 2026-05-04 12:47 | 28.69488 | -14.42790 | 15001 ft | 256 kts | 249° |
| 2026-05-04 12:48 | 28.68744 | -14.44643 | 15001 ft | 256 kts | 249° |
| 2026-05-04 12:48 | 28.68007 | -14.46477 | 15001 ft | 256 kts | 249° |
| 2026-05-04 12:48 | 28.67264 | -14.48328 | 15001 ft | 256 kts | 249° |
| 2026-05-04 12:48 | 28.66519 | -14.50180 | 15001 ft | 256 kts | 249° |
| 2026-05-04 12:49 | 28.65783 | -14.52010 | 15001 ft | 256 kts | 249° |
| 2026-05-04 12:49 | 28.65032 | -14.53877 | 15001 ft | 256 kts | 249° |
| 2026-05-04 12:49 | 28.64297 | -14.55703 | 15001 ft | 256 kts | 249° |
| 2026-05-04 12:49 | 28.63557 | -14.57543 | 15001 ft | 256 kts | 249° |
| 2026-05-04 12:50 | 28.62811 | -14.59395 | 15001 ft | 256 kts | 249° |
| 2026-05-04 12:50 | 28.62068 | -14.61238 | 15001 ft | 256 kts | 249° |
| 2026-05-04 12:50 | 28.61315 | -14.63107 | 15001 ft | 256 kts | 248° |
| 2026-05-04 12:50 | 28.60572 | -14.64949 | 15001 ft | 256 kts | 248° |
| 2026-05-04 12:51 | 28.59835 | -14.66775 | 15001 ft | 256 kts | 248° |
| 2026-05-04 12:51 | 28.59087 | -14.68629 | 15001 ft | 256 kts | 248° |
| 2026-05-04 12:51 | 28.58346 | -14.70464 | 15001 ft | 256 kts | 248° |
| 2026-05-04 12:51 | 28.57599 | -14.72311 | 15001 ft | 256 kts | 248° |
| 2026-05-04 12:52 | 28.56863 | -14.74133 | 15001 ft | 256 kts | 248° |
| 2026-05-04 12:52 | 28.56116 | -14.75981 | 15001 ft | 256 kts | 248° |
| 2026-05-04 12:52 | 28.55365 | -14.77838 | 15001 ft | 256 kts | 248° |
| 2026-05-04 12:52 | 28.54620 | -14.79677 | 15001 ft | 256 kts | 248° |
| 2026-05-04 12:53 | 28.53879 | -14.81509 | 15001 ft | 256 kts | 248° |
| 2026-05-04 12:53 | 28.53128 | -14.83362 | 15001 ft | 256 kts | 248° |
| 2026-05-04 12:53 | 28.52381 | -14.85205 | 15001 ft | 256 kts | 248° |
| 2026-05-04 12:53 | 28.51648 | -14.87015 | 15001 ft | 256 kts | 248° |
| 2026-05-04 12:54 | 28.50897 | -14.88864 | 15001 ft | 256 kts | 248° |
| 2026-05-04 12:54 | 28.50148 | -14.90710 | 15001 ft | 256 kts | 248° |
| 2026-05-04 12:54 | 28.49395 | -14.92563 | 15001 ft | 256 kts | 248° |
| 2026-05-04 12:54 | 28.48658 | -14.94377 | 15001 ft | 256 kts | 248° |
| 2026-05-04 12:55 | 28.47905 | -14.96228 | 15001 ft | 256 kts | 248° |
| 2026-05-04 12:55 | 28.47157 | -14.98068 | 15001 ft | 256 kts | 248° |
| 2026-05-04 12:55 | 28.46413 | -14.99896 | 15001 ft | 256 kts | 248° |
| 2026-05-04 12:55 | 28.45654 | -15.01762 | 15001 ft | 256 kts | 248° |
| 2026-05-04 12:56 | 28.44914 | -15.03577 | 15001 ft | 256 kts | 248° |
| 2026-05-04 12:56 | 28.44163 | -15.05422 | 15001 ft | 256 kts | 248° |
| 2026-05-04 12:56 | 28.43411 | -15.07266 | 15001 ft | 256 kts | 248° |
| 2026-05-04 12:56 | 28.42666 | -15.09093 | 15001 ft | 256 kts | 248° |
| 2026-05-04 12:57 | 28.41914 | -15.10938 | 15001 ft | 256 kts | 248° |
| 2026-05-04 12:57 | 28.41167 | -15.12768 | 15001 ft | 256 kts | 248° |
| 2026-05-04 12:57 | 28.40420 | -15.14598 | 15001 ft | 256 kts | 248° |
| 2026-05-04 12:57 | 28.39664 | -15.16449 | 15001 ft | 256 kts | 248° |
| 2026-05-04 12:58 | 28.38914 | -15.18284 | 15001 ft | 256 kts | 248° |
| 2026-05-04 12:58 | 28.38162 | -15.20125 | 15001 ft | 256 kts | 248° |
| 2026-05-04 12:58 | 28.37409 | -15.21966 | 15001 ft | 256 kts | 248° |
| 2026-05-04 12:58 | 28.36661 | -15.23794 | 15001 ft | 256 kts | 248° |
| 2026-05-04 12:59 | 28.35902 | -15.25649 | 15001 ft | 257 kts | 248° |
| 2026-05-04 12:59 | 28.35159 | -15.27463 | 15001 ft | 257 kts | 248° |
| 2026-05-04 12:59 | 28.34408 | -15.29329 | 15001 ft | 257 kts | 249° |
| 2026-05-04 12:59 | 28.33675 | -15.31180 | 15001 ft | 257 kts | 249° |
| 2026-05-04 13:00 | 28.32934 | -15.33012 | 15001 ft | 257 kts | 248° |
| 2026-05-04 13:00 | 28.32181 | -15.34856 | 15001 ft | 257 kts | 248° |
| 2026-05-04 13:00 | 28.31427 | -15.36698 | 15001 ft | 257 kts | 248° |
| 2026-05-04 13:00 | 28.30675 | -15.38530 | 15001 ft | 257 kts | 248° |
| 2026-05-04 13:01 | 28.29920 | -15.40369 | 15001 ft | 257 kts | 248° |
| 2026-05-04 13:01 | 28.29166 | -15.42207 | 15001 ft | 257 kts | 248° |
| 2026-05-04 13:01 | 28.28414 | -15.44038 | 15001 ft | 257 kts | 248° |
| 2026-05-04 13:01 | 28.27661 | -15.45870 | 15001 ft | 257 kts | 248° |
| 2026-05-04 13:02 | 28.26904 | -15.47714 | 15001 ft | 257 kts | 248° |
| 2026-05-04 13:02 | 28.26148 | -15.49551 | 15001 ft | 257 kts | 248° |
| 2026-05-04 13:02 | 28.25546 | -15.51015 | 15001 ft | 257 kts | 248° |
| 2026-05-04 13:02 | 28.24788 | -15.52857 | 15001 ft | 257 kts | 248° |
| 2026-05-04 13:03 | 28.24037 | -15.54681 | 15001 ft | 257 kts | 248° |
| 2026-05-04 13:03 | 28.23274 | -15.56534 | 15001 ft | 256 kts | 248° |
| 2026-05-04 13:03 | 28.22520 | -15.58362 | 15001 ft | 256 kts | 248° |
| 2026-05-04 13:03 | 28.21768 | -15.60188 | 15001 ft | 256 kts | 248° |
| 2026-05-04 13:04 | 28.21009 | -15.62028 | 15001 ft | 256 kts | 248° |
| 2026-05-04 13:04 | 28.20251 | -15.63865 | 15001 ft | 256 kts | 248° |
| 2026-05-04 13:04 | 28.19501 | -15.65682 | 15001 ft | 256 kts | 248° |
| 2026-05-04 13:04 | 28.18744 | -15.67517 | 15001 ft | 256 kts | 248° |
| 2026-05-04 13:05 | 28.17990 | -15.69342 | 15001 ft | 256 kts | 248° |
| 2026-05-04 13:05 | 28.17233 | -15.71172 | 15001 ft | 256 kts | 248° |
| 2026-05-04 13:05 | 28.16472 | -15.73014 | 15001 ft | 256 kts | 248° |
| 2026-05-04 13:05 | 28.15719 | -15.74834 | 15001 ft | 256 kts | 248° |
| 2026-05-04 13:06 | 28.14961 | -15.76667 | 15001 ft | 256 kts | 248° |
| 2026-05-04 13:06 | 28.14201 | -15.78502 | 15001 ft | 256 kts | 248° |
| 2026-05-04 13:06 | 28.13441 | -15.80337 | 15001 ft | 256 kts | 248° |
| 2026-05-04 13:06 | 28.12685 | -15.82163 | 15001 ft | 256 kts | 248° |
| 2026-05-04 13:07 | 28.11967 | -15.83895 | 15001 ft | 256 kts | 248° |
| 2026-05-04 13:07 | 28.11465 | -15.85106 | 15001 ft | 256 kts | 248° |
| 2026-05-04 13:07 | 28.10708 | -15.86931 | 15001 ft | 256 kts | 248° |
| 2026-05-04 13:07 | 28.09951 | -15.88756 | 15001 ft | 256 kts | 248° |
| 2026-05-04 13:08 | 28.09190 | -15.90591 | 15001 ft | 256 kts | 248° |
| 2026-05-04 13:08 | 28.08437 | -15.92404 | 15001 ft | 256 kts | 248° |
| 2026-05-04 13:08 | 28.07671 | -15.94248 | 15001 ft | 256 kts | 248° |
| 2026-05-04 13:08 | 28.06913 | -15.96070 | 15001 ft | 256 kts | 248° |
| 2026-05-04 13:09 | 28.06155 | -15.97894 | 15001 ft | 256 kts | 248° |
| 2026-05-04 13:09 | 28.05396 | -15.99719 | 15001 ft | 256 kts | 248° |
| 2026-05-04 13:09 | 28.04632 | -16.01554 | 15001 ft | 256 kts | 248° |
| 2026-05-04 13:09 | 28.03868 | -16.03389 | 15001 ft | 256 kts | 248° |
| 2026-05-04 13:10 | 28.03113 | -16.05201 | 15001 ft | 256 kts | 248° |
| 2026-05-04 13:10 | 28.02344 | -16.07049 | 15001 ft | 256 kts | 248° |
| 2026-05-04 13:10 | 28.01591 | -16.08854 | 15001 ft | 256 kts | 248° |
| 2026-05-04 13:10 | 28.00829 | -16.10683 | 15001 ft | 256 kts | 248° |
| 2026-05-04 13:11 | 28.00062 | -16.12521 | 15001 ft | 256 kts | 248° |
| 2026-05-04 13:11 | 27.99296 | -16.14358 | 15001 ft | 256 kts | 248° |